createdAt,value
2023-04-15T00:01:06.950Z,94.42
2023-04-15T00:03:41.509Z,94.59
2023-04-15T00:06:14.832Z,95.15
2023-04-15T00:08:48.036Z,95.28
2023-04-15T00:11:21.073Z,94.81
2023-04-15T00:13:54.429Z,94.59
2023-04-15T00:16:28.425Z,95.03
2023-04-15T00:19:03.043Z,95.26
2023-04-15T00:21:36.485Z,95.70
2023-04-15T00:24:09.498Z,94.95
2023-04-15T00:26:42.591Z,94.53
2023-04-15T00:29:15.687Z,94.89
2023-04-15T00:31:48.731Z,95.27
2023-04-15T00:34:23.226Z,95.77
2023-04-15T00:36:56.395Z,95.42
2023-04-15T00:39:29.658Z,95.65
2023-04-15T00:42:03.409Z,96.28
2023-04-15T00:44:36.420Z,96.09
2023-04-15T00:47:10.154Z,96.46
2023-04-15T00:49:44.528Z,96.06
2023-04-15T00:52:17.532Z,95.88
2023-04-15T00:54:51.262Z,96.03
2023-04-15T00:57:24.452Z,95.74
2023-04-15T00:59:58.369Z,95.30
2023-04-15T01:02:33.460Z,95.33
2023-04-15T01:05:08.757Z,95.29
2023-04-15T01:07:41.788Z,94.67
2023-04-15T01:10:14.894Z,95.09
2023-04-15T01:12:48.035Z,95.92
2023-04-15T01:15:21.926Z,95.88
2023-04-15T01:17:55.245Z,95.79
2023-04-15T01:20:30.829Z,96.09
2023-04-15T01:23:04.012Z,96.55
2023-04-15T01:25:38.409Z,96.76
2023-04-15T01:28:11.849Z,97.02
2023-04-15T01:30:44.838Z,96.98
2023-04-15T01:33:17.849Z,97.21
2023-04-15T01:35:50.940Z,96.54
2023-04-15T01:38:24.049Z,96.65
2023-04-15T01:40:59.264Z,96.78
2023-04-15T01:43:32.426Z,97.36
2023-04-15T01:46:06.194Z,97.25
2023-04-15T01:48:39.200Z,97.59
2023-04-15T01:51:12.297Z,97.92
2023-04-15T01:53:45.493Z,98.04
2023-04-15T01:56:19.868Z,97.65
2023-04-15T01:58:52.933Z,97.75
2023-04-15T02:01:25.998Z,97.96
2023-04-15T02:03:59.071Z,98.18
2023-04-15T02:06:32.132Z,98.19
2023-04-15T02:09:05.152Z,98.41
2023-04-15T02:11:39.556Z,98.88
2023-04-15T02:14:12.712Z,98.75
2023-04-15T02:16:45.810Z,98.84
2023-04-15T02:19:18.911Z,98.69
2023-04-15T02:21:51.932Z,97.79
2023-04-15T02:24:24.992Z,98.06
2023-04-15T02:26:59.414Z,97.68
2023-04-15T02:29:33.362Z,98.41
2023-04-15T02:32:07.257Z,98.51
2023-04-15T02:34:41.280Z,98.24
2023-04-15T02:37:16.046Z,98.60
2023-04-15T02:39:49.097Z,99.01
2023-04-15T02:42:23.514Z,98.80
2023-04-15T02:44:57.253Z,99.03
2023-04-15T02:47:30.321Z,99.73
2023-04-15T02:50:04.641Z,98.54
2023-04-15T02:52:37.634Z,98.58
2023-04-15T02:55:11.602Z,99.00
2023-04-15T02:57:46.123Z,99.28
2023-04-15T03:00:19.265Z,99.34
2023-04-15T03:02:56.534Z,99.47
2023-04-15T03:05:30.055Z,98.93
2023-04-15T03:08:03.182Z,99.27
2023-04-15T03:10:36.288Z,99.51
2023-04-15T03:13:10.741Z,99.23
2023-04-15T03:15:43.913Z,98.42
2023-04-15T03:18:16.960Z,96.98
2023-04-15T03:20:50.053Z,97.29
2023-04-15T03:23:23.064Z,98.18
2023-04-15T03:25:57.766Z,98.80
2023-04-15T03:28:32.729Z,99.07
2023-04-15T03:31:05.922Z,98.92
2023-04-15T03:33:38.973Z,99.89
2023-04-15T03:36:12.134Z,99.66
2023-04-15T03:38:45.166Z,98.86
2023-04-15T03:41:18.209Z,99.52
2023-04-15T03:43:52.810Z,99.61
2023-04-15T03:46:25.856Z,99.76
2023-04-15T03:48:59.973Z,100.00
2023-04-15T03:51:33.278Z,99.68
2023-04-15T03:54:06.356Z,99.32
2023-04-15T03:56:39.502Z,98.29
2023-04-15T03:59:13.896Z,99.26
2023-04-15T04:01:47.028Z,99.19
2023-04-15T04:04:20.212Z,99.15
2023-04-15T04:06:53.559Z,99.35
2023-04-15T04:09:26.783Z,100.00
2023-04-15T04:11:59.955Z,100.00
2023-04-15T04:14:34.327Z,99.62
2023-04-15T04:17:07.490Z,99.88
2023-04-15T04:19:40.960Z,100.00
2023-04-15T04:22:13.997Z,100.00
2023-04-15T04:24:46.999Z,100.00
2023-04-15T04:27:20.017Z,100.00
2023-04-15T04:29:54.345Z,100.00
2023-04-15T04:32:27.438Z,100.00
2023-04-15T04:35:00.583Z,100.00
2023-04-15T04:37:33.673Z,100.00
2023-04-15T04:40:09.498Z,100.00
2023-04-15T04:42:42.550Z,100.00
2023-04-15T04:45:16.956Z,100.00
2023-04-15T04:47:50.048Z,100.00
2023-04-15T04:50:23.119Z,100.00
2023-04-15T04:52:56.440Z,100.00
2023-04-15T04:55:29.757Z,100.00
2023-04-15T04:58:02.746Z,100.00
2023-04-15T05:00:37.964Z,99.95
2023-04-15T05:03:11.160Z,100.00
2023-04-15T05:05:45.852Z,100.00
2023-04-15T05:08:18.900Z,99.86
2023-04-15T05:10:51.976Z,99.16
2023-04-15T05:13:25.054Z,99.62
2023-04-15T05:15:59.916Z,99.09
2023-04-15T05:18:33.096Z,98.40
2023-04-15T05:21:07.704Z,98.05
2023-04-15T05:23:41.270Z,98.22
2023-04-15T05:26:14.325Z,98.53
2023-04-15T05:28:47.887Z,98.45
2023-04-15T05:31:22.551Z,98.11
2023-04-15T05:33:55.745Z,98.65
2023-04-15T05:36:28.810Z,98.13
2023-04-15T05:39:02.036Z,97.99
2023-04-15T05:41:35.301Z,98.69
2023-04-15T05:44:08.395Z,99.04
2023-04-15T05:46:43.342Z,98.36
2023-04-15T05:49:16.487Z,98.03
2023-04-15T05:51:49.777Z,96.78
2023-04-15T05:54:23.184Z,95.14
2023-04-15T05:56:57.560Z,94.58
2023-04-15T05:59:31.055Z,93.99
2023-04-15T06:02:06.371Z,93.63
2023-04-15T06:04:39.683Z,93.88
2023-04-15T06:07:12.800Z,91.63
2023-04-15T06:09:45.907Z,90.15
2023-04-15T06:12:18.971Z,90.11
2023-04-15T06:14:52.200Z,86.96
2023-04-15T06:17:26.733Z,85.30
2023-04-15T06:20:00.037Z,83.49
2023-04-15T06:22:33.083Z,80.53
2023-04-15T06:25:09.388Z,78.35
2023-04-15T06:27:42.660Z,76.15
2023-04-15T06:30:15.707Z,75.06
2023-04-15T06:32:50.217Z,73.48
2023-04-15T06:35:23.352Z,71.89
2023-04-15T06:37:56.730Z,74.00
2023-04-15T06:40:29.868Z,72.60
2023-04-15T06:43:03.019Z,71.48
2023-04-15T06:45:36.285Z,72.38
2023-04-15T06:48:10.705Z,70.35
2023-04-15T06:50:43.892Z,69.66
2023-04-15T06:53:17.387Z,67.36
2023-04-15T06:55:50.473Z,65.86
2023-04-15T06:58:23.507Z,66.04
2023-04-15T07:00:57.360Z,66.48
2023-04-15T07:03:32.880Z,62.29
2023-04-15T07:06:06.862Z,63.82
2023-04-15T07:08:39.920Z,63.77
2023-04-15T07:11:13.134Z,62.00
2023-04-15T07:13:46.616Z,63.94
2023-04-15T07:16:19.972Z,61.68
2023-04-15T07:18:54.321Z,62.59
2023-04-15T07:21:27.690Z,61.77
2023-04-15T07:24:00.890Z,61.74
2023-04-15T07:26:33.914Z,59.84
2023-04-15T07:29:07.174Z,59.06
2023-04-15T07:31:42.218Z,57.19
2023-04-15T07:34:17.140Z,56.94
2023-04-15T07:36:50.625Z,55.95
2023-04-15T07:39:23.690Z,54.87
2023-04-15T07:41:56.934Z,55.67
2023-04-15T07:44:30.026Z,57.07
2023-04-15T07:47:04.156Z,56.70
2023-04-15T07:49:38.549Z,56.14
2023-04-15T07:52:11.572Z,54.12
2023-04-15T07:54:44.757Z,53.20
2023-04-15T07:57:18.438Z,53.32
2023-04-15T07:59:51.421Z,52.56
2023-04-15T08:02:24.564Z,53.11
2023-04-15T08:04:59.745Z,53.07
2023-04-15T08:07:33.012Z,53.73
2023-04-15T08:10:07.214Z,53.49
2023-04-15T08:12:40.609Z,55.37
2023-04-15T08:15:14.096Z,55.37
2023-04-15T08:17:47.330Z,54.68
2023-04-15T08:20:21.898Z,51.73
2023-04-15T08:22:55.040Z,52.15
2023-04-15T08:25:28.308Z,52.68
2023-04-15T08:28:07.114Z,53.06
2023-04-15T08:30:40.209Z,52.98
2023-04-15T08:33:13.276Z,52.24
2023-04-15T08:35:48.162Z,50.93
2023-04-15T08:38:21.201Z,52.15
2023-04-15T08:40:54.287Z,50.56
2023-04-15T08:43:30.671Z,50.68
2023-04-15T08:46:05.712Z,49.74
2023-04-15T08:48:40.635Z,49.61
2023-04-15T08:51:16.335Z,47.42
2023-04-15T08:53:50.882Z,49.58
2023-04-15T08:56:27.663Z,48.83
2023-04-15T08:59:01.168Z,48.73
2023-04-15T09:01:34.568Z,48.12
2023-04-15T09:04:08.326Z,47.43
2023-04-15T09:06:42.806Z,47.50
2023-04-15T09:09:15.890Z,46.53
2023-04-15T09:11:49.980Z,47.39
2023-04-15T09:14:23.066Z,46.69
2023-04-15T09:17:00.845Z,47.45
2023-04-15T09:19:34.661Z,46.87
2023-04-15T09:22:09.117Z,47.41
2023-04-15T09:24:43.407Z,46.83
2023-04-15T09:27:17.826Z,47.39
2023-04-15T09:29:51.801Z,45.99
2023-04-15T09:32:25.026Z,47.13
2023-04-15T09:34:58.093Z,47.25
2023-04-15T09:37:37.765Z,47.18
2023-04-15T09:40:12.037Z,47.24
2023-04-15T09:42:57.569Z,46.74
2023-04-15T09:45:31.001Z,44.37
2023-04-15T09:48:18.760Z,45.31
2023-04-15T09:50:53.915Z,45.74
2023-04-15T09:53:31.607Z,45.43
2023-04-15T09:56:07.849Z,46.05
2023-04-15T09:58:42.514Z,45.41
2023-04-15T10:01:15.607Z,46.00
2023-04-15T10:03:49.021Z,46.51
2023-04-15T10:06:23.192Z,46.47
2023-04-15T10:08:58.439Z,45.71
2023-04-15T10:11:32.857Z,47.14
2023-04-15T10:14:07.352Z,46.85
2023-04-15T10:16:43.464Z,46.79
2023-04-15T10:19:17.704Z,47.76
2023-04-15T10:21:52.051Z,48.03
2023-04-15T10:24:27.082Z,47.99
2023-04-15T10:27:01.249Z,47.00
2023-04-15T10:29:34.310Z,46.83
2023-04-15T10:32:07.852Z,48.01
2023-04-15T10:34:41.744Z,46.26
2023-04-15T10:37:14.803Z,47.77
2023-04-15T10:39:49.375Z,47.84
2023-04-15T10:42:22.626Z,46.91
2023-04-15T10:44:58.437Z,47.94
2023-04-15T10:47:33.926Z,48.78
2023-04-15T10:50:08.590Z,48.96
2023-04-15T10:52:42.712Z,48.08
2023-04-15T10:55:22.265Z,48.52
2023-04-15T10:58:00.800Z,49.32
2023-04-15T11:00:35.675Z,48.98
2023-04-15T11:03:10.637Z,46.80
2023-04-15T11:05:52.433Z,46.95
2023-04-15T11:08:58.857Z,45.00
2023-04-15T11:12:08.841Z,46.23
2023-04-15T11:14:43.307Z,45.00
2023-04-15T11:17:16.487Z,46.12
2023-04-15T11:19:49.552Z,44.85
2023-04-15T11:22:22.805Z,45.52
2023-04-15T11:24:55.845Z,44.91
2023-04-15T11:27:32.626Z,45.97
2023-04-15T11:30:21.187Z,45.91
2023-04-15T11:32:56.792Z,47.55
2023-04-15T11:35:30.587Z,45.97
2023-04-15T11:38:05.316Z,45.77
2023-04-15T11:40:39.833Z,45.65
2023-04-15T11:43:17.087Z,46.39
2023-04-15T11:45:55.589Z,47.08
2023-04-15T11:48:31.733Z,46.30
2023-04-15T11:51:06.517Z,48.14
2023-04-15T11:53:43.066Z,46.94
2023-04-15T11:56:20.212Z,47.32
2023-04-15T11:58:57.326Z,47.13
2023-04-15T12:01:35.082Z,47.62
2023-04-15T12:04:13.767Z,47.78
2023-04-15T12:06:47.454Z,47.49
2023-04-15T12:09:21.072Z,47.35
2023-04-15T12:11:58.801Z,48.14
2023-04-15T12:14:34.640Z,48.62
2023-04-15T12:17:08.082Z,48.50
2023-04-15T12:19:43.171Z,47.95
2023-04-15T12:22:17.943Z,48.74
2023-04-15T12:24:57.765Z,49.84
2023-04-15T12:27:32.405Z,50.64
2023-04-15T12:30:08.948Z,50.18
2023-04-15T12:32:43.531Z,45.92
2023-04-15T12:35:16.842Z,43.82
2023-04-15T12:37:49.828Z,45.27
2023-04-15T12:40:22.892Z,42.36
2023-04-15T12:42:56.542Z,43.59
2023-04-15T12:45:31.700Z,43.29
2023-04-15T12:48:04.849Z,42.91
2023-04-15T12:50:37.898Z,41.56
2023-04-15T12:53:11.003Z,40.22
2023-04-15T12:55:44.053Z,40.93
2023-04-15T12:58:17.065Z,41.03
2023-04-15T13:00:52.806Z,41.03
2023-04-15T13:03:25.987Z,41.66
2023-04-15T13:05:59.209Z,41.59
2023-04-15T13:08:32.254Z,41.77
2023-04-15T13:11:05.931Z,42.09
2023-04-15T13:13:38.986Z,42.83
2023-04-15T13:16:13.440Z,43.99
2023-04-15T13:18:47.021Z,44.75
2023-04-15T13:21:20.817Z,46.83
2023-04-15T13:23:54.039Z,45.84
2023-04-15T13:26:27.214Z,46.90
2023-04-15T13:29:01.936Z,49.59
2023-04-15T13:31:36.495Z,47.98
2023-04-15T13:34:09.644Z,46.12
2023-04-15T13:36:42.693Z,46.26
2023-04-15T13:39:15.679Z,43.61
2023-04-15T13:41:49.326Z,43.35
2023-04-15T13:44:22.436Z,44.23
2023-04-15T13:46:56.800Z,45.05
2023-04-15T13:49:30.505Z,44.72
2023-04-15T13:52:03.571Z,44.15
2023-04-15T13:54:37.925Z,44.36
2023-04-15T13:57:11.280Z,46.01
2023-04-15T13:59:45.031Z,44.25
2023-04-15T14:02:19.439Z,44.68
2023-04-15T14:04:52.525Z,44.03
2023-04-15T14:07:25.803Z,43.85
2023-04-15T14:09:58.829Z,42.27
2023-04-15T14:12:31.901Z,42.64
2023-04-15T14:15:06.003Z,43.22
2023-04-15T14:17:42.321Z,43.95
2023-04-15T14:20:17.156Z,42.15
2023-04-15T14:22:50.438Z,42.66
2023-04-15T14:25:33.325Z,41.65
2023-04-15T14:28:07.028Z,43.03
2023-04-15T14:30:40.086Z,41.82
2023-04-15T14:33:14.490Z,42.95
2023-04-15T14:35:47.601Z,42.70
2023-04-15T14:38:22.638Z,42.96
2023-04-15T14:40:55.758Z,44.18
2023-04-15T14:43:28.813Z,44.62
2023-04-15T14:46:02.188Z,46.18
2023-04-15T14:48:36.763Z,46.30
2023-04-15T14:51:09.949Z,47.18
2023-04-15T14:53:43.069Z,47.85
2023-04-15T14:56:16.229Z,47.84
2023-04-15T14:58:49.400Z,49.28
2023-04-15T15:01:22.619Z,48.79
2023-04-15T15:03:57.267Z,48.78
2023-04-15T15:06:30.338Z,49.47
2023-04-15T15:09:03.758Z,49.91
2023-04-15T15:11:37.047Z,50.86
2023-04-15T15:14:10.304Z,51.33
2023-04-15T15:16:43.414Z,51.35
2023-04-15T15:19:17.879Z,51.39
2023-04-15T15:21:50.908Z,51.61
2023-04-15T15:24:23.983Z,51.81
2023-04-15T15:26:57.141Z,52.40
2023-04-15T15:29:30.330Z,53.67
2023-04-15T15:32:03.319Z,54.76
2023-04-15T15:34:37.714Z,55.40
2023-04-15T15:37:10.772Z,56.40
2023-04-15T15:39:43.784Z,57.43
2023-04-15T15:42:16.843Z,60.14
2023-04-15T15:44:52.810Z,60.78
2023-04-15T15:47:26.772Z,61.87
2023-04-15T15:50:02.696Z,62.69
2023-04-15T15:52:37.286Z,65.09
2023-04-15T15:55:10.675Z,67.04
2023-04-15T15:57:43.873Z,69.10
2023-04-15T16:00:17.372Z,71.26
2023-04-15T16:03:06.142Z,74.20
2023-04-15T16:05:41.392Z,75.46
2023-04-15T16:08:14.413Z,75.32
2023-04-15T16:10:47.567Z,76.80
2023-04-15T16:13:20.634Z,78.27
2023-04-15T16:15:53.635Z,80.88
2023-04-15T16:18:26.657Z,82.33
2023-04-15T16:21:01.147Z,83.83
2023-04-15T16:23:35.084Z,84.61
2023-04-15T16:26:08.134Z,86.53
2023-04-15T16:28:41.222Z,88.73
2023-04-15T16:31:14.304Z,90.05
2023-04-15T16:33:47.358Z,91.31
2023-04-15T16:36:21.794Z,92.61
2023-04-15T16:38:54.965Z,93.88
2023-04-15T16:41:27.985Z,95.71
2023-04-15T16:44:01.274Z,95.57
2023-04-15T16:46:34.347Z,95.98
2023-04-15T16:49:07.353Z,96.32
2023-04-15T16:51:41.753Z,96.45
2023-04-15T16:54:14.804Z,96.92
2023-04-15T16:56:47.889Z,98.94
2023-04-15T16:59:20.901Z,99.50
2023-04-15T17:01:54.904Z,100.00
2023-04-15T17:04:29.638Z,100.00
2023-04-15T17:07:04.828Z,100.00
2023-04-15T17:09:39.531Z,100.00
2023-04-15T17:12:12.600Z,100.00
2023-04-15T17:14:45.673Z,100.00
2023-04-15T17:17:20.662Z,100.00
2023-04-15T17:19:53.745Z,100.00
2023-04-15T17:22:29.074Z,100.00
2023-04-15T17:25:02.119Z,100.00
2023-04-15T17:27:35.235Z,100.00
2023-04-15T17:30:10.103Z,100.00
2023-04-15T17:32:43.277Z,100.00
2023-04-15T17:35:16.483Z,100.00
2023-04-15T17:37:50.904Z,100.00
2023-04-15T17:40:24.104Z,100.00
2023-04-15T17:42:57.411Z,100.00
2023-04-15T17:45:31.258Z,100.00
2023-04-15T17:48:04.551Z,100.00
2023-04-15T17:50:38.480Z,100.00
2023-04-15T17:53:12.875Z,100.00
2023-04-15T17:55:46.420Z,100.00
2023-04-15T17:58:19.503Z,100.00
2023-04-15T18:00:52.541Z,100.00
2023-04-15T18:03:26.303Z,100.00
2023-04-15T18:06:00.688Z,100.00
2023-04-15T18:08:35.131Z,100.00
2023-04-15T18:11:08.876Z,100.00
2023-04-15T18:13:43.583Z,100.00
2023-04-15T18:16:17.153Z,100.00
2023-04-15T18:18:50.247Z,100.00
2023-04-15T18:21:23.283Z,100.00
2023-04-15T18:23:57.664Z,100.00
2023-04-15T18:26:30.737Z,100.00
2023-04-15T18:29:03.841Z,100.00
2023-04-15T18:31:36.987Z,100.00
2023-04-15T18:34:10.165Z,100.00
2023-04-15T18:36:43.206Z,100.00
2023-04-15T18:39:17.678Z,100.00
2023-04-15T18:41:50.709Z,100.00
2023-04-15T18:44:23.944Z,100.00
2023-04-15T18:46:57.021Z,100.00
2023-04-15T18:49:30.911Z,100.00
2023-04-15T18:52:04.103Z,100.00
2023-04-15T18:54:38.911Z,100.00
2023-04-15T18:57:12.003Z,100.00
2023-04-15T18:59:45.149Z,100.00
2023-04-15T19:02:18.274Z,100.00
2023-04-15T19:04:51.388Z,100.00
2023-04-15T19:07:24.909Z,100.00
2023-04-15T19:09:59.329Z,100.00
2023-04-15T19:12:32.419Z,100.00
2023-04-15T19:15:06.249Z,100.00
2023-04-15T19:17:39.631Z,100.00
2023-04-15T19:20:13.084Z,100.00
2023-04-15T19:22:46.131Z,100.00
2023-04-15T19:25:20.731Z,100.00
2023-04-15T19:27:53.831Z,100.00
2023-04-15T19:30:26.981Z,100.00
2023-04-15T19:33:00.073Z,100.00
2023-04-15T19:35:33.303Z,100.00
2023-04-15T19:38:06.513Z,100.00
2023-04-15T19:40:40.876Z,100.00
2023-04-15T19:43:13.916Z,100.00
2023-04-15T19:45:49.303Z,100.00
2023-04-15T19:48:26.024Z,100.00
2023-04-15T19:50:59.841Z,100.00
2023-04-15T19:53:32.838Z,100.00
2023-04-15T19:56:07.424Z,100.00
2023-04-15T19:58:40.470Z,100.00
2023-04-15T20:01:13.832Z,100.00
2023-04-15T20:03:47.372Z,100.00
2023-04-15T20:06:21.451Z,100.00
2023-04-15T20:08:54.498Z,100.00
2023-04-15T20:12:05.109Z,100.00
2023-04-15T20:14:22.881Z,100.00
2023-04-15T20:16:56.145Z,100.00
2023-04-15T20:19:29.189Z,100.00
2023-04-15T20:22:02.327Z,100.00
2023-04-15T20:24:35.360Z,100.00
2023-04-15T20:27:09.761Z,100.00
2023-04-15T20:29:42.794Z,100.00
2023-04-15T20:32:15.817Z,100.00
2023-04-15T20:34:49.277Z,100.00
2023-04-15T20:37:22.421Z,100.00
2023-04-15T20:39:55.475Z,100.00
2023-04-15T20:42:33.481Z,100.00
2023-04-15T20:45:08.363Z,100.00
2023-04-15T20:47:41.558Z,100.00
2023-04-15T20:50:14.750Z,100.00
2023-04-15T20:52:47.826Z,100.00
2023-04-15T20:55:21.056Z,100.00
2023-04-15T20:57:56.959Z,100.00
2023-04-15T21:00:31.071Z,100.00
2023-04-15T21:03:05.106Z,100.00
2023-04-15T21:05:38.268Z,100.00
2023-04-15T21:08:11.756Z,100.00
2023-04-15T21:10:44.816Z,100.00
2023-04-15T21:13:19.185Z,100.00
2023-04-15T21:15:54.102Z,100.00
2023-04-15T21:18:27.260Z,100.00
2023-04-15T21:21:02.007Z,100.00
2023-04-15T21:23:36.016Z,100.00
2023-04-15T21:26:09.479Z,100.00
2023-04-15T21:28:43.863Z,100.00
2023-04-15T21:31:17.012Z,100.00
2023-04-15T21:33:50.076Z,100.00
2023-04-15T21:36:23.120Z,100.00
2023-04-15T21:38:56.136Z,100.00
2023-04-15T21:41:29.239Z,100.00
2023-04-15T21:44:03.917Z,100.00
2023-04-15T21:46:37.007Z,100.00
2023-04-15T21:49:12.352Z,100.00
2023-04-15T21:51:46.356Z,100.00
2023-04-15T21:54:19.496Z,100.00
2023-04-15T21:56:52.499Z,100.00
2023-04-15T21:59:27.220Z,100.00
2023-04-15T22:02:00.480Z,100.00
2023-04-15T22:04:33.571Z,100.00
2023-04-15T22:07:06.608Z,100.00
2023-04-15T22:09:39.648Z,100.00
2023-04-15T22:12:12.755Z,100.00
2023-04-15T22:14:47.172Z,100.00
2023-04-15T22:17:20.193Z,100.00
2023-04-15T22:19:53.205Z,100.00
2023-04-15T22:22:27.407Z,100.00
2023-04-15T22:25:16.877Z,100.00
2023-04-15T22:27:50.054Z,100.00
2023-04-15T22:30:24.822Z,100.00
2023-04-15T22:32:57.834Z,100.00
2023-04-15T22:35:30.845Z,100.00
2023-04-15T22:38:04.721Z,100.00
2023-04-15T22:40:37.790Z,100.00
2023-04-15T22:43:10.796Z,100.00
2023-04-15T22:45:50.871Z,100.00
2023-04-15T22:48:24.190Z,100.00
2023-04-15T22:50:57.233Z,100.00
2023-04-15T22:53:30.317Z,100.00
2023-04-15T22:56:03.549Z,100.00
2023-04-15T22:58:36.586Z,100.00
2023-04-15T23:01:11.184Z,100.00
2023-04-15T23:03:57.155Z,100.00
2023-04-15T23:06:37.524Z,100.00
2023-04-15T23:09:10.995Z,100.00
2023-04-15T23:11:44.270Z,100.00
2023-04-15T23:14:17.289Z,100.00
2023-04-15T23:16:51.630Z,100.00
2023-04-15T23:19:24.960Z,100.00
2023-04-15T23:21:58.055Z,100.00
2023-04-15T23:24:31.075Z,100.00
2023-04-15T23:27:04.177Z,100.00
2023-04-15T23:29:37.226Z,100.00
2023-04-15T23:32:11.610Z,100.00
2023-04-15T23:34:44.663Z,100.00
2023-04-15T23:37:18.947Z,100.00
2023-04-15T23:39:52.211Z,100.00
2023-04-15T23:42:25.950Z,100.00
2023-04-15T23:44:59.059Z,100.00
2023-04-15T23:47:33.463Z,100.00
2023-04-15T23:50:08.593Z,100.00
2023-04-15T23:52:41.604Z,100.00
2023-04-15T23:55:14.756Z,100.00
2023-04-15T23:57:48.149Z,100.00
